page 4668 of 1007670 registered users

eBook PostsUsers

  1. 0guide32stick registered @ 2012-11-29 01:43:28, last login @ 2012-11-29 01:43:28
  2. 0change94nest registered @ 2012-11-29 01:44:10, last login @ 2012-11-29 01:44:10
  3. 0lead4limit registered @ 2012-11-29 01:44:19, last login @ 2012-11-29 01:44:19
  4. 0cuban0cymbal registered @ 2012-11-29 01:45:08, last login @ 2012-11-29 01:45:08
  5. 0nation80carbon registered @ 2012-11-29 01:46:45, last login @ 2012-11-29 01:46:45
  6. 0cicada4title registered @ 2012-11-29 01:47:13, last login @ 2012-11-29 01:47:13
  7. 0money4polish registered @ 2012-11-29 01:47:36, last login @ 2012-11-29 01:47:36
  8. 0branchflame2 registered @ 2012-11-29 01:48:25, last login @ 2012-11-29 01:48:25
  9. 0windowbakery84 registered @ 2012-11-29 01:50:11, last login @ 2012-11-29 01:50:11
  10. 0recordnickel9 registered @ 2012-11-29 01:50:12, last login @ 2012-11-29 01:50:12
  11. 0TaylorCoBMW registered @ 2012-11-29 01:50:42, last login @ 2012-11-29 01:50:42
  12. 0parade8cook registered @ 2012-11-29 01:50:55, last login @ 2012-11-29 01:50:55
  13. 0plantcancer53 registered @ 2012-11-29 01:51:14, last login @ 2012-11-29 01:51:14
  14. 0ovenhorse68 registered @ 2012-11-29 01:51:16, last login @ 2012-11-29 01:51:16
  15. 0beetlelilac4 registered @ 2012-11-29 01:52:07, last login @ 2012-11-29 01:52:07
  16. 0violavelvet3 registered @ 2012-11-29 01:52:46, last login @ 2012-11-29 01:52:46
  17. 0oystercave5 registered @ 2012-11-29 01:52:51, last login @ 2012-11-29 01:52:51
  18. 0tea0nerve registered @ 2012-11-29 01:54:51, last login @ 2012-11-29 01:54:51
  19. 0tramp35pickle registered @ 2012-11-29 01:55:35, last login @ 2012-11-29 01:55:35
  20. 0angorapuffin9 registered @ 2012-11-29 01:56:47, last login @ 2012-11-29 01:56:47
  21. 0iraq89path registered @ 2012-11-29 01:57:20, last login @ 2012-11-29 01:57:20
  22. 0sneezeflag10 registered @ 2012-11-29 01:57:41, last login @ 2012-11-29 01:57:41
  23. 0felonyfriend86 registered @ 2012-11-29 01:58:17, last login @ 2012-11-29 01:58:17
  24. 0waterquiet1 registered @ 2012-11-29 01:58:38, last login @ 2012-11-29 01:58:38
  25. 0weightcarrot04 registered @ 2012-11-29 01:59:01, last login @ 2012-11-29 01:59:01
  26. 0silkanswer00 registered @ 2012-11-29 02:01:20, last login @ 2012-11-29 02:01:20
  27. 0secure2pin registered @ 2012-11-29 02:01:46, last login @ 2012-11-29 02:01:46
  28. 0crow17bone registered @ 2012-11-29 02:03:35, last login @ 2012-11-29 02:03:35
  29. 0pauldiving5 registered @ 2012-11-29 02:03:37, last login @ 2012-11-29 02:03:37
  30. 0templetrial24 registered @ 2012-11-29 02:04:52, last login @ 2012-11-29 02:04:52
  31. 0rotate7clock registered @ 2012-11-29 02:05:02, last login @ 2012-11-29 02:53:49
  32. 0okra19teller registered @ 2012-11-29 02:05:19, last login @ 2012-11-29 02:05:19
  33. 0map0weight registered @ 2012-11-29 02:05:52, last login @ 2012-11-29 02:05:52
  34. 0breadscale53 registered @ 2012-11-29 02:05:54, last login @ 2012-11-29 02:05:54
  35. 0bakery69fang registered @ 2012-11-29 02:06:02, last login @ 2012-11-29 02:06:02
  36. 0frown8index registered @ 2012-11-29 02:07:08, last login @ 2012-11-29 02:07:08
  37. 0bull12banana registered @ 2012-11-29 02:08:29, last login @ 2012-11-29 02:08:29
  38. 0credit3summer registered @ 2012-11-29 02:09:11, last login @ 2012-11-29 02:09:11
  39. 0baitbirch0 registered @ 2012-11-29 02:09:44, last login @ 2012-11-29 02:09:44
  40. 0congo57jumbo registered @ 2012-11-29 02:09:59, last login @ 2012-11-29 02:09:59
  41. 0russiaglider00 registered @ 2012-11-29 02:11:03, last login @ 2012-11-29 02:11:03
  42. 0second5condor registered @ 2012-11-29 02:11:38, last login @ 2012-11-29 02:11:38
  43. 0tenorbit65 registered @ 2012-11-29 02:13:22, last login @ 2012-11-29 02:13:22
  44. 0closeshrimp30 registered @ 2012-11-29 02:14:18, last login @ 2012-11-29 02:14:18
  45. 0vest26whorl registered @ 2012-11-29 02:14:33, last login @ 2012-11-29 02:14:33
  46. 0turkeylathe7 registered @ 2012-11-29 02:15:02, last login @ 2012-11-29 02:15:02
  47. 0auntshrine3 registered @ 2012-11-29 02:15:03, last login @ 2012-11-29 02:15:03
  48. 0gate5muscle registered @ 2012-11-29 02:16:13, last login @ 2012-11-29 02:16:13
  49. 0systembaboon1 registered @ 2012-11-29 02:16:47, last login @ 2012-11-29 02:16:47
  50. 0anglebasket8 registered @ 2012-11-29 02:16:55, last login @ 2012-11-29 02:16:55
  51. 0pint7skate registered @ 2012-11-29 02:17:42, last login @ 2012-11-29 02:17:42
  52. 0sled9farm registered @ 2012-11-29 02:18:01, last login @ 2012-11-29 02:18:01
  53. 0fine25tub registered @ 2012-11-29 02:19:02, last login @ 2012-11-29 02:19:02
  54. 0health4poet registered @ 2012-11-29 02:20:18, last login @ 2012-11-29 02:20:18
  55. 0parent41show registered @ 2012-11-29 02:21:42, last login @ 2012-11-29 02:21:42
  56. 0dew71rice registered @ 2012-11-29 02:23:25, last login @ 2012-11-29 02:23:25
  57. 0spoonjoseph03 registered @ 2012-11-29 02:24:14, last login @ 2012-11-29 02:24:14
  58. 0growth28clutch registered @ 2012-11-29 02:24:49, last login @ 2012-11-29 02:24:49
  59. 0carehandle81 registered @ 2012-11-29 02:26:45, last login @ 2012-11-29 02:26:45
  60. 0wall4frost registered @ 2012-11-29 02:27:08, last login @ 2012-11-29 02:27:08
  61. 0churchtire15 registered @ 2012-11-29 02:27:39, last login @ 2012-11-29 02:27:39
  62. 0dill89cut registered @ 2012-11-29 02:29:19, last login @ 2012-11-29 02:29:19
  63. 0bolesychcdfae9 registered @ 2012-11-29 02:29:40, last login @ 2012-11-29 02:29:40
  64. 0baconsweets2 registered @ 2012-11-29 02:30:28, last login @ 2012-11-29 02:30:28
  65. 0celerygram75 registered @ 2012-11-29 02:31:03, last login @ 2012-11-29 02:31:03
  66. 0nickelhate69 registered @ 2012-11-29 02:32:20, last login @ 2012-11-29 02:32:20
  67. 0dbeersigns407 registered @ 2012-11-29 02:33:19, last login @ 2012-11-29 02:33:19
  68. 0banananotify98 registered @ 2012-11-29 02:33:48, last login @ 2012-11-29 02:33:48
  69. 0humorblow8 registered @ 2012-11-29 02:34:44, last login @ 2012-11-29 02:34:44
  70. 0dancewomen3 registered @ 2012-11-29 02:34:53, last login @ 2012-11-29 02:34:53
  71. 0colt79north registered @ 2012-11-29 02:34:55, last login @ 2012-11-29 02:34:55
  72. 0twine9guide registered @ 2012-11-29 02:35:29, last login @ 2012-11-29 02:35:29
  73. 0buffer25dibble registered @ 2012-11-29 02:36:04, last login @ 2012-11-29 02:36:04
  74. 0yachtbottom9 registered @ 2012-11-29 02:37:59, last login @ 2012-11-29 02:37:59
  75. 0esenam1995 registered @ 2012-11-29 02:38:38, last login @ 2012-11-29 02:38:38
  76. 0PKHathawaite registered @ 2012-11-29 02:38:47, last login @ 2012-11-29 02:38:47
  77. 0olivewinter4 registered @ 2012-11-29 02:39:27, last login @ 2012-11-29 02:39:27
  78. 0grip3kick registered @ 2012-11-29 02:40:05, last login @ 2012-11-29 02:40:05
  79. 0letter00search registered @ 2012-11-29 02:40:50, last login @ 2012-11-29 02:40:50
  80. 0altoberet8 registered @ 2012-11-29 02:41:27, last login @ 2012-11-29 02:41:27
  81. 0foxrotate2 registered @ 2012-11-29 02:42:53, last login @ 2012-11-29 02:42:53
  82. 0mirrorroof57 registered @ 2012-11-29 02:43:26, last login @ 2012-11-29 02:43:26
  83. 0kenya2james registered @ 2012-11-29 02:44:13, last login @ 2012-11-29 02:44:13
  84. 0palmyam6o registered @ 2012-11-29 02:44:27, last login @ 2012-11-29 02:44:27
  85. 0ring67neck registered @ 2012-11-29 02:44:49, last login @ 2012-11-29 02:44:49
  86. 0dailey1127 registered @ 2012-11-29 02:46:07, last login @ 2012-11-29 02:46:07
  87. 0canadaclam07 registered @ 2012-11-29 02:46:55, last login @ 2012-11-29 02:46:55
  88. 0wireonion62 registered @ 2012-11-29 02:46:58, last login @ 2012-11-29 02:46:58
  89. 0poundcrayon4 registered @ 2012-11-29 02:47:02, last login @ 2012-11-29 02:47:02
  90. 0europe0susan registered @ 2012-11-29 02:47:32, last login @ 2012-11-29 02:47:32
  91. 0palmbongo7 registered @ 2012-11-29 02:47:58, last login @ 2012-11-29 02:47:58
  92. 0hopebuffet0 registered @ 2012-11-29 02:48:08, last login @ 2012-11-29 02:48:08
  93. 0sidecomic4 registered @ 2012-11-29 02:48:45, last login @ 2012-11-29 02:48:45
  94. 0nailchord61 registered @ 2012-11-29 02:48:47, last login @ 2012-11-29 02:48:47
  95. 0yogurtankle5 registered @ 2012-11-29 02:49:17, last login @ 2012-11-29 02:49:17
  96. 0pantsstew17 registered @ 2012-11-29 02:49:46, last login @ 2012-11-29 02:49:46
  97. 0black79raft registered @ 2012-11-29 02:52:26, last login @ 2012-11-29 02:52:26
  98. 0liquorquiver6 registered @ 2012-11-29 02:53:03, last login @ 2012-11-29 02:53:03
  99. 0violet7toast registered @ 2012-11-29 02:53:35, last login @ 2012-11-29 02:53:35
  100. 0sockchef7 registered @ 2012-11-29 02:53:55, last login @ 2012-11-29 02:53:55
  101. 0spherepull3 registered @ 2012-11-29 02:54:15, last login @ 2012-11-29 02:54:15

More...

[4678] [4677] [4676] [4675] [4674] [4673] [4672] [4671] [4670] [4669] [4668] [4667] [4666] [4665] [4664] [4663] [4662] [4661] [4660] [4659] ...[1]
Back to Top